Terminal Aerodrome Forecast
Issued by NWS Albany, NY

Home | Current Version | Previous Version | Text Only | Print | Product List | Glossary On
Versions: 1 2 3 4 5 6 7 8 9 10 11 12 13 14 15 16 17 18 19
000
FTUS41 KALY 282300
TAFGFL
TAF
KGFL 282337Z 2900/2924 33010KT P6SM OVC070
     FM290200 33005KT P6SM SCT070
     FM290400 00000KT 3SM BR SKC
     FM290600 00000KT 1SM BR VV002
     FM291200 VRB03KT P6SM FEW040 SCT250
     FM291800 33005KT P6SM SCT050=

USA.gov is the U.S. government's official web portal to all federal, state and local government web resources and services.